createdAt,value
2023-07-28T00:02:26.791Z,115781.44
2023-07-28T00:07:30.274Z,115883.30
2023-07-28T00:12:35.065Z,115953.86
2023-07-28T00:17:38.485Z,115895.95
2023-07-28T00:22:44.396Z,115832.45
2023-07-28T00:27:49.233Z,115978.05
2023-07-28T00:32:52.766Z,116148.05
2023-07-28T00:37:56.349Z,116856.90
2023-07-28T00:43:03.686Z,117169.24
2023-07-28T00:48:13.074Z,117524.11
2023-07-28T00:53:16.808Z,117126.46
2023-07-28T00:58:24.007Z,116861.80
2023-07-28T01:03:30.766Z,117924.88
2023-07-28T01:08:41.144Z,117568.20
2023-07-28T01:13:45.970Z,116831.88
2023-07-28T01:18:49.669Z,117140.34
2023-07-28T01:24:02.360Z,117609.03
2023-07-28T01:29:07.870Z,117242.83
2023-07-28T01:34:12.743Z,117256.95
2023-07-28T01:39:18.394Z,117459.05
2023-07-28T01:44:23.268Z,117343.51
2023-07-28T01:49:26.673Z,117380.29
2023-07-28T01:54:30.190Z,116997.93
2023-07-28T01:59:36.510Z,117262.74
2023-07-28T02:04:44.546Z,117037.45
2023-07-28T02:09:48.045Z,116900.04
2023-07-28T02:14:52.972Z,116958.20
2023-07-28T02:19:56.419Z,116844.02
2023-07-28T02:25:02.840Z,116930.36
2023-07-28T02:30:12.519Z,110781.70
2023-07-28T02:35:16.628Z,99147.56
2023-07-28T02:40:21.250Z,101301.62
2023-07-28T02:45:26.178Z,104379.52
2023-07-28T02:50:29.569Z,103521.36
2023-07-28T02:55:33.021Z,102794.13
2023-07-28T03:00:41.502Z,101574.07
2023-07-28T03:05:45.377Z,103767.23
2023-07-28T03:11:03.652Z,99999.13
2023-07-28T03:16:14.436Z,102240.12
2023-07-28T03:21:20.328Z,102540.95
2023-07-28T03:26:23.729Z,105005.77
2023-07-28T03:31:30.688Z,110794.71
2023-07-28T03:36:34.489Z,110731.70
2023-07-28T03:41:40.664Z,109376.10
2023-07-28T03:46:45.404Z,108365.79
2023-07-28T03:51:48.898Z,107918.12
2023-07-28T03:56:55.368Z,107449.96
2023-07-28T04:02:00.103Z,107069.17
2023-07-28T04:07:03.531Z,106974.48
2023-07-28T04:12:09.614Z,105772.06
2023-07-28T04:17:16.891Z,109344.08
2023-07-28T04:22:23.273Z,107501.47
2023-07-28T04:27:31.479Z,106259.30
2023-07-28T04:32:39.568Z,105816.48
2023-07-28T04:37:49.276Z,105797.79
2023-07-28T04:43:00.108Z,104434.74
2023-07-28T04:48:05.144Z,104170.44
2023-07-28T04:53:08.660Z,103633.20
2023-07-28T04:58:14.258Z,103489.98
2023-07-28T05:03:32.766Z,103467.02
2023-07-28T05:08:48.148Z,103279.63
2023-07-28T05:13:58.147Z,102924.63
2023-07-28T05:19:03.367Z,107165.51
2023-07-28T05:24:27.096Z,109442.26
2023-07-28T05:29:30.502Z,109002.56
2023-07-28T05:34:45.830Z,108689.93
2023-07-28T05:39:51.771Z,107419.84
2023-07-28T05:44:57.179Z,106303.12
2023-07-28T05:50:05.434Z,105875.27
2023-07-28T05:55:09.846Z,105679.88
2023-07-28T06:00:15.775Z,105517.24
2023-07-28T06:05:20.449Z,105446.04
2023-07-28T06:10:26.901Z,104633.88
2023-07-28T06:15:31.070Z,104451.91
2023-07-28T06:20:36.602Z,103993.31
2023-07-28T06:25:44.856Z,104903.23
2023-07-28T06:30:48.838Z,104655.30
2023-07-28T06:35:53.653Z,104122.19
2023-07-28T06:40:57.535Z,103767.98
2023-07-28T06:46:03.302Z,103613.24
2023-07-28T06:51:08.376Z,103178.49
2023-07-28T06:56:11.852Z,102804.34
2023-07-28T07:01:15.368Z,102698.98
2023-07-28T07:06:20.173Z,102417.38
2023-07-28T07:11:28.363Z,102591.25
2023-07-28T07:16:34.455Z,102432.18
2023-07-28T07:21:41.448Z,109951.48
2023-07-28T07:26:44.983Z,108811.61
2023-07-28T07:31:48.435Z,106329.21
2023-07-28T07:36:53.235Z,105826.88
2023-07-28T07:41:56.684Z,105212.24
2023-07-28T07:47:03.950Z,104369.58
2023-07-28T07:52:09.665Z,103946.30
2023-07-28T07:57:15.363Z,103196.24
2023-07-28T08:02:18.837Z,102836.54
2023-07-28T08:07:25.854Z,102600.50
2023-07-28T08:12:31.534Z,102381.05
2023-07-28T08:17:35.005Z,102238.38
2023-07-28T08:22:39.829Z,102284.77
2023-07-28T08:27:43.292Z,102124.80
2023-07-28T08:32:50.117Z,101757.36
2023-07-28T08:37:57.299Z,104419.77
2023-07-28T08:43:00.713Z,107060.90
2023-07-28T08:48:04.569Z,106402.15
2023-07-28T08:53:09.682Z,105937.04
2023-07-28T08:58:16.955Z,105851.56
2023-07-28T09:03:20.976Z,106755.34
2023-07-28T09:08:25.998Z,105181.79
2023-07-28T09:13:37.711Z,101855.93
2023-07-28T09:18:43.732Z,103875.23
2023-07-28T09:23:48.510Z,110835.81
2023-07-28T09:28:52.361Z,109980.73
2023-07-28T09:33:58.110Z,108996.33
2023-07-28T09:39:04.021Z,108598.62
2023-07-28T09:44:07.840Z,108558.16
2023-07-28T09:49:14.794Z,108377.55
2023-07-28T09:54:26.347Z,108056.64
2023-07-28T09:59:31.962Z,108184.42
2023-07-28T10:04:38.089Z,108189.45
2023-07-28T10:09:45.934Z,107966.36
2023-07-28T10:15:02.443Z,107654.05
2023-07-28T10:20:11.783Z,107966.27
2023-07-28T10:25:24.196Z,108061.36
2023-07-28T10:30:27.719Z,107047.08
2023-07-28T10:35:33.325Z,106695.79
2023-07-28T10:40:41.037Z,106443.88
2023-07-28T10:45:47.494Z,106557.98
2023-07-28T10:50:52.451Z,106521.79
2023-07-28T10:56:00.413Z,106249.01
2023-07-28T11:01:04.185Z,106387.55
2023-07-28T11:06:09.835Z,105372.27
2023-07-28T11:11:16.118Z,105081.96
2023-07-28T11:16:19.619Z,104530.65
2023-07-28T11:21:26.500Z,104629.98
2023-07-28T11:26:31.517Z,104515.38
2023-07-28T11:31:37.482Z,104593.06
2023-07-28T11:36:43.876Z,104409.64
2023-07-28T11:41:49.742Z,104150.76
2023-07-28T11:46:58.536Z,103978.20
2023-07-28T11:52:05.449Z,103043.71
2023-07-28T11:57:12.485Z,103007.98
2023-07-28T12:07:30.410Z,102845.48
2023-07-28T12:28:20.692Z,102724.68
2023-07-28T12:33:38.957Z,102622.82
2023-07-28T12:38:43.026Z,102422.60
2023-07-28T12:48:59.497Z,102438.70
2023-07-28T12:54:02.976Z,102529.31
2023-07-28T13:04:18.925Z,103024.70
2023-07-28T13:14:34.707Z,102857.95
2023-07-28T13:19:38.093Z,103073.57
2023-07-28T13:24:45.012Z,103554.20
2023-07-28T13:29:51.922Z,103613.56
2023-07-28T13:34:58.656Z,103479.35
2023-07-28T13:40:02.101Z,103611.62
2023-07-28T13:45:10.886Z,103591.67
2023-07-28T13:50:16.489Z,103537.66
2023-07-28T13:55:41.155Z,103644.02
2023-07-28T14:00:49.023Z,103583.66
2023-07-28T14:05:52.415Z,103325.48
2023-07-28T14:10:55.882Z,103170.71
2023-07-28T14:16:00.859Z,103081.69
2023-07-28T14:21:06.686Z,103163.13
2023-07-28T14:26:10.107Z,103138.30
2023-07-28T14:31:17.033Z,102982.57
2023-07-28T14:36:20.424Z,102948.41
2023-07-28T14:41:23.885Z,102960.65
2023-07-28T14:46:28.713Z,103009.80
2023-07-28T14:51:32.296Z,103076.70
2023-07-28T14:56:35.929Z,102997.33
2023-07-28T15:01:45.717Z,102947.64
2023-07-28T15:06:49.372Z,103267.63
2023-07-28T15:11:52.814Z,103574.96
2023-07-28T15:16:57.616Z,103277.13
2023-07-28T15:22:02.991Z,102683.83
2023-07-28T15:27:10.181Z,102871.98
2023-07-28T15:32:16.977Z,102931.70
2023-07-28T15:37:20.381Z,103257.73
2023-07-28T15:42:24.028Z,102944.98
2023-07-28T15:47:34.250Z,102794.89
2023-07-28T15:52:40.233Z,102857.98
2023-07-28T15:57:45.987Z,102956.51
2023-07-28T16:02:53.205Z,103030.33
2023-07-28T16:07:59.322Z,103083.35
2023-07-28T16:13:02.768Z,103644.34
2023-07-28T16:18:09.824Z,103792.54
2023-07-28T16:23:13.364Z,103523.23
2023-07-28T16:28:19.564Z,103807.69
2023-07-28T16:33:26.776Z,103759.34
2023-07-28T16:38:30.246Z,103576.46
2023-07-28T16:43:33.731Z,103832.26
2023-07-28T16:48:38.513Z,103348.13
2023-07-28T16:53:41.996Z,103307.30
2023-07-28T16:58:47.961Z,103508.68
2023-07-28T17:03:54.936Z,103295.95
2023-07-28T17:08:58.283Z,103314.60
2023-07-28T17:14:04.225Z,103209.63
2023-07-28T17:19:11.549Z,103048.32
2023-07-28T17:24:14.987Z,102876.37
2023-07-28T17:29:18.319Z,103120.30
2023-07-28T17:34:23.127Z,103208.23
2023-07-28T17:39:26.592Z,103649.94
2023-07-28T17:44:30.124Z,104197.49
2023-07-28T17:49:35.350Z,104119.30
2023-07-28T17:54:38.799Z,104033.33
2023-07-28T17:59:42.602Z,103856.11
2023-07-28T18:04:47.707Z,103968.68
2023-07-28T18:09:52.816Z,103838.77
2023-07-28T18:14:58.841Z,104828.54
2023-07-28T18:20:04.888Z,105452.88
2023-07-28T18:25:08.749Z,104735.54
2023-07-28T18:30:16.356Z,104200.80
2023-07-28T18:35:24.541Z,103921.51
2023-07-28T18:40:30.337Z,103700.59
2023-07-28T18:45:33.942Z,103624.37
2023-07-28T18:50:42.245Z,103726.02
2023-07-28T18:55:48.043Z,103423.43
2023-07-28T19:00:53.453Z,103596.25
2023-07-28T19:05:58.288Z,103492.00
2023-07-28T19:11:06.797Z,103344.41
2023-07-28T19:16:10.312Z,103467.99
2023-07-28T19:21:17.380Z,103591.86
2023-07-28T19:26:21.328Z,103917.23
2023-07-28T19:31:24.837Z,103790.91
2023-07-28T19:36:31.089Z,103994.94
2023-07-28T19:41:34.830Z,104763.32
2023-07-28T19:46:40.821Z,104830.70
2023-07-28T19:51:45.599Z,104076.94
2023-07-28T19:56:51.410Z,103743.11
2023-07-28T20:02:01.528Z,103899.68
2023-07-28T20:07:09.637Z,103658.25
2023-07-28T20:12:17.953Z,103522.62
2023-07-28T20:17:21.425Z,103563.08
2023-07-28T20:22:26.416Z,103468.82
2023-07-28T20:27:33.610Z,103484.91
2023-07-28T20:32:37.335Z,103458.18
2023-07-28T20:37:42.236Z,103398.52
2023-07-28T20:42:45.939Z,103243.33
2023-07-28T20:47:52.022Z,103369.08
2023-07-28T20:52:58.327Z,103172.75
2023-07-28T20:58:02.657Z,103111.32
2023-07-28T21:03:06.573Z,103176.38
2023-07-28T21:08:12.160Z,103047.30
2023-07-28T21:13:17.556Z,103061.42
2023-07-28T21:18:22.522Z,103412.26
2023-07-28T21:23:32.930Z,103626.49
2023-07-28T21:28:38.339Z,104167.02
2023-07-28T21:33:46.835Z,103076.86
2023-07-28T21:38:54.142Z,103026.20
2023-07-28T21:44:01.794Z,102940.95
2023-07-28T21:49:07.722Z,103107.50
2023-07-28T21:54:12.758Z,102724.80
2023-07-28T21:59:16.278Z,102500.92
2023-07-28T22:04:22.896Z,102431.54
2023-07-28T22:09:28.048Z,103517.84
2023-07-28T22:14:34.003Z,104958.37
2023-07-28T22:19:40.299Z,104922.56
2023-07-28T22:24:45.667Z,104958.90
2023-07-28T22:29:54.348Z,105734.85
2023-07-28T22:34:58.041Z,104860.30
2023-07-28T22:40:04.633Z,104364.02
2023-07-28T22:45:08.592Z,105049.18
2023-07-28T22:50:14.792Z,105022.86
2023-07-28T22:55:19.797Z,104466.30
2023-07-28T23:00:24.865Z,104104.25
2023-07-28T23:05:30.986Z,103533.50
2023-07-28T23:10:36.148Z,103425.87
2023-07-28T23:15:39.797Z,103277.86
2023-07-28T23:20:48.113Z,103129.45
2023-07-28T23:25:52.989Z,103043.04
2023-07-28T23:31:11.307Z,102946.36
2023-07-28T23:36:15.378Z,102845.62
2023-07-28T23:41:22.714Z,103014.09
2023-07-28T23:46:26.427Z,102758.02
2023-07-28T23:51:32.962Z,102775.81
2023-07-28T23:56:42.825Z,102630.81
